sensor_id;sensor_type;location;lat;lon;timestamp;temperature;humidity
981;DHT22;479;53.514;9.994;2022-10-04T00:01:49;11.80;99.90
981;DHT22;479;53.514;9.994;2022-10-04T00:04:22;11.80;99.90
981;DHT22;479;53.514;9.994;2022-10-04T00:06:56;11.70;99.90
981;DHT22;479;53.514;9.994;2022-10-04T00:09:29;11.70;99.90
981;DHT22;479;53.514;9.994;2022-10-04T00:11:58;11.70;99.90
981;DHT22;479;53.514;9.994;2022-10-04T00:14:29;11.70;99.90
981;DHT22;479;53.514;9.994;2022-10-04T00:16:59;11.70;99.90
981;DHT22;479;53.514;9.994;2022-10-04T00:19:39;11.70;99.90
981;DHT22;479;53.514;9.994;2022-10-04T00:22:32;11.70;99.90
981;DHT22;479;53.514;9.994;2022-10-04T00:25:17;11.70;99.90
981;DHT22;479;53.514;9.994;2022-10-04T00:28:22;11.70;99.90
981;DHT22;479;53.514;9.994;2022-10-04T00:31:10;11.70;99.90
981;DHT22;479;53.514;9.994;2022-10-04T00:33:39;11.60;99.90
981;DHT22;479;53.514;9.994;2022-10-04T00:39:37;11.60;99.90
981;DHT22;479;53.514;9.994;2022-10-04T00:42:33;11.60;99.90
981;DHT22;479;53.514;9.994;2022-10-04T00:45:06;11.60;99.90
981;DHT22;479;53.514;9.994;2022-10-04T00:47:57;11.60;99.90
981;DHT22;479;53.514;9.994;2022-10-04T00:50:29;11.60;99.90
981;DHT22;479;53.514;9.994;2022-10-04T00:53:01;11.50;99.90
981;DHT22;479;53.514;9.994;2022-10-04T00:55:35;11.50;99.90
981;DHT22;479;53.514;9.994;2022-10-04T00:58:07;11.50;99.90
981;DHT22;479;53.514;9.994;2022-10-04T01:00:40;11.50;99.90
981;DHT22;479;53.514;9.994;2022-10-04T01:03:11;11.50;99.90
981;DHT22;479;53.514;9.994;2022-10-04T01:05:41;11.50;99.90
981;DHT22;479;53.514;9.994;2022-10-04T01:08:12;11.50;99.90
981;DHT22;479;53.514;9.994;2022-10-04T01:10:45;11.50;99.90
981;DHT22;479;53.514;9.994;2022-10-04T01:13:16;11.60;99.90
981;DHT22;479;53.514;9.994;2022-10-04T01:15:49;11.60;99.90
981;DHT22;479;53.514;9.994;2022-10-04T01:18:27;11.60;99.90
981;DHT22;479;53.514;9.994;2022-10-04T01:20:58;11.60;99.90
981;DHT22;479;53.514;9.994;2022-10-04T01:23:41;11.50;99.90
981;DHT22;479;53.514;9.994;2022-10-04T01:26:40;11.60;99.90
981;DHT22;479;53.514;9.994;2022-10-04T01:29:13;11.60;99.90
981;DHT22;479;53.514;9.994;2022-10-04T01:31:42;11.60;99.90
981;DHT22;479;53.514;9.994;2022-10-04T01:34:12;11.60;99.90
981;DHT22;479;53.514;9.994;2022-10-04T01:36:39;11.60;99.90
981;DHT22;479;53.514;9.994;2022-10-04T01:39:08;11.50;99.90
981;DHT22;479;53.514;9.994;2022-10-04T01:41:42;11.50;99.90
981;DHT22;479;53.514;9.994;2022-10-04T01:44:17;11.50;99.90
981;DHT22;479;53.514;9.994;2022-10-04T01:46:47;11.50;99.90
981;DHT22;479;53.514;9.994;2022-10-04T01:49:17;11.50;99.90
981;DHT22;479;53.514;9.994;2022-10-04T01:51:51;11.50;99.90
981;DHT22;479;53.514;9.994;2022-10-04T01:54:29;11.50;99.90
981;DHT22;479;53.514;9.994;2022-10-04T01:57:00;11.50;99.90
981;DHT22;479;53.514;9.994;2022-10-04T01:59:32;11.50;99.90
981;DHT22;479;53.514;9.994;2022-10-04T02:02:05;11.50;99.90
981;DHT22;479;53.514;9.994;2022-10-04T02:04:35;11.50;99.90
981;DHT22;479;53.514;9.994;2022-10-04T02:07:10;11.40;99.90
981;DHT22;479;53.514;9.994;2022-10-04T02:09:42;11.50;99.90
981;DHT22;479;53.514;9.994;2022-10-04T02:12:12;11.50;99.90
981;DHT22;479;53.514;9.994;2022-10-04T02:14:44;11.50;99.90
981;DHT22;479;53.514;9.994;2022-10-04T02:17:13;11.50;99.90
981;DHT22;479;53.514;9.994;2022-10-04T02:19:42;11.50;99.90
981;DHT22;479;53.514;9.994;2022-10-04T02:22:10;11.50;99.90
981;DHT22;479;53.514;9.994;2022-10-04T02:24:41;11.50;99.90
981;DHT22;479;53.514;9.994;2022-10-04T02:27:09;11.50;99.90
981;DHT22;479;53.514;9.994;2022-10-04T02:29:37;11.50;99.90
981;DHT22;479;53.514;9.994;2022-10-04T02:32:06;11.60;99.90
981;DHT22;479;53.514;9.994;2022-10-04T02:34:51;11.70;99.90
981;DHT22;479;53.514;9.994;2022-10-04T02:37:21;12.00;99.90
981;DHT22;479;53.514;9.994;2022-10-04T02:39:53;12.00;99.90
981;DHT22;479;53.514;9.994;2022-10-04T02:42:32;11.80;99.90
981;DHT22;479;53.514;9.994;2022-10-04T02:45:05;11.80;99.90
981;DHT22;479;53.514;9.994;2022-10-04T02:47:42;11.70;99.90
981;DHT22;479;53.514;9.994;2022-10-04T02:50:20;11.70;99.90
981;DHT22;479;53.514;9.994;2022-10-04T02:52:54;11.70;99.90
981;DHT22;479;53.514;9.994;2022-10-04T02:55:26;11.70;99.90
981;DHT22;479;53.514;9.994;2022-10-04T02:57:54;11.60;99.90
981;DHT22;479;53.514;9.994;2022-10-04T03:00:24;11.80;99.90
981;DHT22;479;53.514;9.994;2022-10-04T03:03:07;11.80;99.90
981;DHT22;479;53.514;9.994;2022-10-04T03:05:37;11.80;99.90
981;DHT22;479;53.514;9.994;2022-10-04T03:08:05;11.90;99.90
981;DHT22;479;53.514;9.994;2022-10-04T03:10:34;12.00;99.90
981;DHT22;479;53.514;9.994;2022-10-04T03:13:01;11.90;99.90
981;DHT22;479;53.514;9.994;2022-10-04T03:15:29;11.80;99.90
981;DHT22;479;53.514;9.994;2022-10-04T03:17:57;11.70;99.90
981;DHT22;479;53.514;9.994;2022-10-04T03:20:25;11.60;99.90
981;DHT22;479;53.514;9.994;2022-10-04T03:22:54;11.80;99.90
981;DHT22;479;53.514;9.994;2022-10-04T03:25:24;11.80;99.90
981;DHT22;479;53.514;9.994;2022-10-04T03:27:58;11.70;99.90
981;DHT22;479;53.514;9.994;2022-10-04T03:30:27;11.90;99.90
981;DHT22;479;53.514;9.994;2022-10-04T03:32:55;12.10;99.90
981;DHT22;479;53.514;9.994;2022-10-04T03:35:28;11.90;99.90
981;DHT22;479;53.514;9.994;2022-10-04T03:37:56;11.80;99.90
981;DHT22;479;53.514;9.994;2022-10-04T03:40:27;11.80;99.90
981;DHT22;479;53.514;9.994;2022-10-04T03:42:58;11.80;99.90
981;DHT22;479;53.514;9.994;2022-10-04T03:45:27;11.90;99.90
981;DHT22;479;53.514;9.994;2022-10-04T03:47:59;11.90;99.90
981;DHT22;479;53.514;9.994;2022-10-04T03:50:33;11.90;99.90
981;DHT22;479;53.514;9.994;2022-10-04T03:53:08;11.80;99.90
981;DHT22;479;53.514;9.994;2022-10-04T03:55:40;11.80;99.90
981;DHT22;479;53.514;9.994;2022-10-04T03:58:10;11.80;99.90
981;DHT22;479;53.514;9.994;2022-10-04T04:00:41;11.90;99.90
981;DHT22;479;53.514;9.994;2022-10-04T04:03:14;11.90;99.90
981;DHT22;479;53.514;9.994;2022-10-04T04:05:43;11.80;99.90
981;DHT22;479;53.514;9.994;2022-10-04T04:08:15;11.80;99.90
981;DHT22;479;53.514;9.994;2022-10-04T04:10:46;11.80;99.90
981;DHT22;479;53.514;9.994;2022-10-04T04:13:22;11.80;99.90
981;DHT22;479;53.514;9.994;2022-10-04T04:15:50;11.70;99.90
981;DHT22;479;53.514;9.994;2022-10-04T04:18:28;11.70;99.90
981;DHT22;479;53.514;9.994;2022-10-04T04:20:59;11.70;99.90
981;DHT22;479;53.514;9.994;2022-10-04T04:23:28;12.00;99.90
981;DHT22;479;53.514;9.994;2022-10-04T04:26:00;12.20;99.90
981;DHT22;479;53.514;9.994;2022-10-04T04:28:41;12.20;99.90
981;DHT22;479;53.514;9.994;2022-10-04T04:31:17;12.10;99.90
981;DHT22;479;53.514;9.994;2022-10-04T04:33:50;12.00;99.90
981;DHT22;479;53.514;9.994;2022-10-04T04:36:17;11.90;99.90
981;DHT22;479;53.514;9.994;2022-10-04T04:38:44;11.80;99.90
981;DHT22;479;53.514;9.994;2022-10-04T04:41:27;12.00;99.90
981;DHT22;479;53.514;9.994;2022-10-04T04:43:56;11.90;99.90
981;DHT22;479;53.514;9.994;2022-10-04T04:46:23;12.00;99.90
981;DHT22;479;53.514;9.994;2022-10-04T04:48:56;12.10;99.90
981;DHT22;479;53.514;9.994;2022-10-04T04:51:25;12.20;99.90
981;DHT22;479;53.514;9.994;2022-10-04T04:53:54;12.40;99.90
981;DHT22;479;53.514;9.994;2022-10-04T04:56:24;12.40;99.90
981;DHT22;479;53.514;9.994;2022-10-04T04:58:53;12.20;99.90
981;DHT22;479;53.514;9.994;2022-10-04T05:01:23;12.10;99.90
981;DHT22;479;53.514;9.994;2022-10-04T05:04:02;12.00;99.90
981;DHT22;479;53.514;9.994;2022-10-04T05:06:30;12.10;99.90
981;DHT22;479;53.514;9.994;2022-10-04T05:08:57;12.20;99.90
981;DHT22;479;53.514;9.994;2022-10-04T05:11:26;12.20;99.90
981;DHT22;479;53.514;9.994;2022-10-04T05:13:57;12.20;99.90
981;DHT22;479;53.514;9.994;2022-10-04T05:16:37;12.20;99.90
981;DHT22;479;53.514;9.994;2022-10-04T05:19:07;12.20;99.90
981;DHT22;479;53.514;9.994;2022-10-04T05:21:42;12.00;99.90
981;DHT22;479;53.514;9.994;2022-10-04T05:24:13;12.00;99.90
981;DHT22;479;53.514;9.994;2022-10-04T05:26:43;12.00;99.90
981;DHT22;479;53.514;9.994;2022-10-04T05:29:16;12.00;99.90
981;DHT22;479;53.514;9.994;2022-10-04T05:31:48;12.20;99.90
981;DHT22;479;53.514;9.994;2022-10-04T05:34:20;12.10;99.90
981;DHT22;479;53.514;9.994;2022-10-04T05:37:04;12.20;99.90
981;DHT22;479;53.514;9.994;2022-10-04T05:39:36;12.20;99.90
981;DHT22;479;53.514;9.994;2022-10-04T05:42:11;12.30;99.90
981;DHT22;479;53.514;9.994;2022-10-04T05:44:50;12.30;99.90
981;DHT22;479;53.514;9.994;2022-10-04T05:47:20;12.40;99.90
981;DHT22;479;53.514;9.994;2022-10-04T05:49:51;12.40;99.90
981;DHT22;479;53.514;9.994;2022-10-04T05:52:26;12.50;99.90
981;DHT22;479;53.514;9.994;2022-10-04T05:55:20;12.40;99.90
981;DHT22;479;53.514;9.994;2022-10-04T05:58:05;12.40;99.90
981;DHT22;479;53.514;9.994;2022-10-04T06:01:05;12.30;99.90
981;DHT22;479;53.514;9.994;2022-10-04T06:03:50;12.20;99.90
981;DHT22;479;53.514;9.994;2022-10-04T06:06:21;12.20;99.90
981;DHT22;479;53.514;9.994;2022-10-04T06:08:59;12.20;99.90
981;DHT22;479;53.514;9.994;2022-10-04T06:11:40;12.20;99.90
981;DHT22;479;53.514;9.994;2022-10-04T06:14:28;12.10;99.90
981;DHT22;479;53.514;9.994;2022-10-04T06:17:12;12.20;99.90
981;DHT22;479;53.514;9.994;2022-10-04T06:20:00;12.10;99.90
981;DHT22;479;53.514;9.994;2022-10-04T06:22:31;12.10;99.90
981;DHT22;479;53.514;9.994;2022-10-04T06:25:01;12.10;99.90
981;DHT22;479;53.514;9.994;2022-10-04T06:27:31;12.20;99.90
981;DHT22;479;53.514;9.994;2022-10-04T06:30:04;12.20;99.90
981;DHT22;479;53.514;9.994;2022-10-04T06:33:02;12.10;99.90
981;DHT22;479;53.514;9.994;2022-10-04T06:39:03;12.00;99.90
981;DHT22;479;53.514;9.994;2022-10-04T06:42:07;11.90;99.90
981;DHT22;479;53.514;9.994;2022-10-04T06:45:01;12.00;99.90
981;DHT22;479;53.514;9.994;2022-10-04T06:47:40;12.00;99.90
981;DHT22;479;53.514;9.994;2022-10-04T06:50:23;12.30;99.90
981;DHT22;479;53.514;9.994;2022-10-04T06:53:08;12.30;99.90
981;DHT22;479;53.514;9.994;2022-10-04T06:55:58;12.40;99.90
981;DHT22;479;53.514;9.994;2022-10-04T07:01:26;12.60;99.90
981;DHT22;479;53.514;9.994;2022-10-04T07:03:59;12.90;99.90
981;DHT22;479;53.514;9.994;2022-10-04T07:06:28;13.10;99.90
981;DHT22;479;53.514;9.994;2022-10-04T07:09:01;13.40;99.90
981;DHT22;479;53.514;9.994;2022-10-04T07:11:35;13.60;99.90
981;DHT22;479;53.514;9.994;2022-10-04T07:14:12;13.80;99.90
981;DHT22;479;53.514;9.994;2022-10-04T07:16:45;14.20;99.90
981;DHT22;479;53.514;9.994;2022-10-04T07:19:27;14.70;99.90
981;DHT22;479;53.514;9.994;2022-10-04T07:22:02;15.10;99.90
981;DHT22;479;53.514;9.994;2022-10-04T07:24:45;15.70;99.90
981;DHT22;479;53.514;9.994;2022-10-04T07:27:16;16.20;99.90
981;DHT22;479;53.514;9.994;2022-10-04T07:29:46;16.30;99.90
981;DHT22;479;53.514;9.994;2022-10-04T07:32:21;16.30;99.90
981;DHT22;479;53.514;9.994;2022-10-04T07:34:53;16.40;99.90
981;DHT22;479;53.514;9.994;2022-10-04T07:37:25;15.80;99.90
981;DHT22;479;53.514;9.994;2022-10-04T07:39:58;15.70;99.90
981;DHT22;479;53.514;9.994;2022-10-04T07:42:31;15.20;99.90
981;DHT22;479;53.514;9.994;2022-10-04T07:45:11;14.90;99.90
981;DHT22;479;53.514;9.994;2022-10-04T07:47:40;14.70;99.90
981;DHT22;479;53.514;9.994;2022-10-04T07:52:50;14.40;99.90
981;DHT22;479;53.514;9.994;2022-10-04T07:55:29;14.40;99.90
981;DHT22;479;53.514;9.994;2022-10-04T07:58:10;14.30;99.90
981;DHT22;479;53.514;9.994;2022-10-04T08:00:47;14.30;99.90
981;DHT22;479;53.514;9.994;2022-10-04T08:03:44;14.30;99.90
981;DHT22;479;53.514;9.994;2022-10-04T08:06:18;14.30;99.90
981;DHT22;479;53.514;9.994;2022-10-04T08:09:12;14.40;99.90
981;DHT22;479;53.514;9.994;2022-10-04T08:11:50;14.50;99.90
981;DHT22;479;53.514;9.994;2022-10-04T08:14:26;14.40;99.90
981;DHT22;479;53.514;9.994;2022-10-04T08:17:09;14.50;99.90
981;DHT22;479;53.514;9.994;2022-10-04T08:19:43;14.60;99.90
981;DHT22;479;53.514;9.994;2022-10-04T08:22:21;14.70;99.90
981;DHT22;479;53.514;9.994;2022-10-04T08:25:00;14.80;99.90
981;DHT22;479;53.514;9.994;2022-10-04T08:27:42;14.80;99.90
981;DHT22;479;53.514;9.994;2022-10-04T08:30:41;14.80;99.90
981;DHT22;479;53.514;9.994;2022-10-04T08:33:24;14.80;99.90
981;DHT22;479;53.514;9.994;2022-10-04T08:36:04;15.00;99.90
981;DHT22;479;53.514;9.994;2022-10-04T08:38:41;15.20;99.90
981;DHT22;479;53.514;9.994;2022-10-04T08:41:43;15.30;99.90
981;DHT22;479;53.514;9.994;2022-10-04T08:44:49;15.70;99.90
981;DHT22;479;53.514;9.994;2022-10-04T08:47:46;16.10;99.90
981;DHT22;479;53.514;9.994;2022-10-04T08:50:36;16.10;99.90
981;DHT22;479;53.514;9.994;2022-10-04T08:53:32;16.30;99.90
981;DHT22;479;53.514;9.994;2022-10-04T08:56:09;16.40;99.90
981;DHT22;479;53.514;9.994;2022-10-04T08:59:10;16.20;99.90
981;DHT22;479;53.514;9.994;2022-10-04T09:02:15;16.00;99.90
981;DHT22;479;53.514;9.994;2022-10-04T09:05:18;15.80;99.90
981;DHT22;479;53.514;9.994;2022-10-04T09:08:13;15.80;99.90
981;DHT22;479;53.514;9.994;2022-10-04T09:13:48;15.50;99.90
981;DHT22;479;53.514;9.994;2022-10-04T09:16:24;15.50;99.90
981;DHT22;479;53.514;9.994;2022-10-04T09:19:18;15.50;99.90
981;DHT22;479;53.514;9.994;2022-10-04T09:22:05;15.60;99.90
981;DHT22;479;53.514;9.994;2022-10-04T09:24:59;15.70;99.90
981;DHT22;479;53.514;9.994;2022-10-04T09:27:47;15.80;99.90
981;DHT22;479;53.514;9.994;2022-10-04T09:30:17;15.80;99.90
981;DHT22;479;53.514;9.994;2022-10-04T09:33:11;15.90;99.90
981;DHT22;479;53.514;9.994;2022-10-04T09:36:05;16.00;99.90
981;DHT22;479;53.514;9.994;2022-10-04T09:44:47;15.70;99.90
981;DHT22;479;53.514;9.994;2022-10-04T09:47:30;15.90;99.90
981;DHT22;479;53.514;9.994;2022-10-04T09:50:20;16.00;99.90
981;DHT22;479;53.514;9.994;2022-10-04T09:52:58;16.10;99.90
981;DHT22;479;53.514;9.994;2022-10-04T09:55:45;16.10;99.90
981;DHT22;479;53.514;9.994;2022-10-04T09:58:47;16.20;99.90
981;DHT22;479;53.514;9.994;2022-10-04T10:01:23;16.10;99.90
981;DHT22;479;53.514;9.994;2022-10-04T10:04:29;16.10;99.90
981;DHT22;479;53.514;9.994;2022-10-04T10:07:12;16.10;99.90
981;DHT22;479;53.514;9.994;2022-10-04T10:09:52;16.20;99.90
981;DHT22;479;53.514;9.994;2022-10-04T10:13:10;16.10;99.90
981;DHT22;479;53.514;9.994;2022-10-04T10:16:00;16.20;99.90
981;DHT22;479;53.514;9.994;2022-10-04T10:18:41;16.30;99.90
981;DHT22;479;53.514;9.994;2022-10-04T10:21:25;16.30;99.90
981;DHT22;479;53.514;9.994;2022-10-04T10:24:21;16.30;99.90
981;DHT22;479;53.514;9.994;2022-10-04T10:27:05;16.30;99.90
981;DHT22;479;53.514;9.994;2022-10-04T10:30:08;16.40;99.90
981;DHT22;479;53.514;9.994;2022-10-04T10:33:17;16.50;99.90
981;DHT22;479;53.514;9.994;2022-10-04T10:36:15;16.50;99.90
981;DHT22;479;53.514;9.994;2022-10-04T10:38:54;17.10;99.90
981;DHT22;479;53.514;9.994;2022-10-04T10:41:40;17.70;99.90
981;DHT22;479;53.514;9.994;2022-10-04T10:44:20;18.40;99.90
981;DHT22;479;53.514;9.994;2022-10-04T10:47:12;18.80;99.90
981;DHT22;479;53.514;9.994;2022-10-04T10:49:55;19.20;99.90
981;DHT22;479;53.514;9.994;2022-10-04T10:53:07;19.30;99.90
981;DHT22;479;53.514;9.994;2022-10-04T10:59:11;18.70;99.90
981;DHT22;479;53.514;9.994;2022-10-04T11:02:03;19.30;99.90
981;DHT22;479;53.514;9.994;2022-10-04T11:04:44;19.40;99.90
981;DHT22;479;53.514;9.994;2022-10-04T11:07:42;18.90;99.90
981;DHT22;479;53.514;9.994;2022-10-04T11:10:58;18.40;99.90
981;DHT22;479;53.514;9.994;2022-10-04T11:14:05;18.20;99.90
981;DHT22;479;53.514;9.994;2022-10-04T11:17:00;18.40;99.90
981;DHT22;479;53.514;9.994;2022-10-04T11:20:06;18.30;99.90
981;DHT22;479;53.514;9.994;2022-10-04T11:23:12;18.70;99.90
981;DHT22;479;53.514;9.994;2022-10-04T11:25:58;19.10;99.90
981;DHT22;479;53.514;9.994;2022-10-04T11:28:36;19.10;99.90
981;DHT22;479;53.514;9.994;2022-10-04T11:31:37;18.90;99.90
981;DHT22;479;53.514;9.994;2022-10-04T11:37:42;18.50;99.90
981;DHT22;479;53.514;9.994;2022-10-04T11:40:33;18.30;99.90
981;DHT22;479;53.514;9.994;2022-10-04T11:43:19;17.80;99.90
981;DHT22;479;53.514;9.994;2022-10-04T11:46:04;17.80;99.90
981;DHT22;479;53.514;9.994;2022-10-04T11:48:42;17.90;99.90
981;DHT22;479;53.514;9.994;2022-10-04T11:51:41;18.00;99.90
981;DHT22;479;53.514;9.994;2022-10-04T11:57:29;18.60;99.90
981;DHT22;479;53.514;9.994;2022-10-04T12:00:09;18.40;99.90
981;DHT22;479;53.514;9.994;2022-10-04T12:03:04;18.40;99.90
981;DHT22;479;53.514;9.994;2022-10-04T12:05:52;18.20;99.90
981;DHT22;479;53.514;9.994;2022-10-04T12:08:32;18.20;99.90
981;DHT22;479;53.514;9.994;2022-10-04T12:11:34;18.10;99.90
981;DHT22;479;53.514;9.994;2022-10-04T12:14:31;18.20;99.90
981;DHT22;479;53.514;9.994;2022-10-04T12:17:41;18.40;99.90
981;DHT22;479;53.514;9.994;2022-10-04T12:20:36;18.30;99.90
981;DHT22;479;53.514;9.994;2022-10-04T12:23:27;18.30;99.90
981;DHT22;479;53.514;9.994;2022-10-04T12:26:18;18.40;99.90
981;DHT22;479;53.514;9.994;2022-10-04T12:29:08;18.30;99.90
981;DHT22;479;53.514;9.994;2022-10-04T12:31:42;18.30;99.90
981;DHT22;479;53.514;9.994;2022-10-04T12:34:15;18.30;99.90
981;DHT22;479;53.514;9.994;2022-10-04T12:37:04;18.20;99.90
981;DHT22;479;53.514;9.994;2022-10-04T12:40:06;18.00;99.90
981;DHT22;479;53.514;9.994;2022-10-04T12:42:46;18.10;99.90
981;DHT22;479;53.514;9.994;2022-10-04T12:45:44;18.00;99.90
981;DHT22;479;53.514;9.994;2022-10-04T12:51:35;18.10;99.90
981;DHT22;479;53.514;9.994;2022-10-04T12:54:16;18.10;99.90
981;DHT22;479;53.514;9.994;2022-10-04T12:56:56;18.20;99.90
981;DHT22;479;53.514;9.994;2022-10-04T12:59:42;18.20;99.90
981;DHT22;479;53.514;9.994;2022-10-04T13:02:28;18.20;99.90
981;DHT22;479;53.514;9.994;2022-10-04T13:05:00;18.20;99.90
981;DHT22;479;53.514;9.994;2022-10-04T13:10:51;18.00;99.90
981;DHT22;479;53.514;9.994;2022-10-04T13:13:27;18.00;99.90
981;DHT22;479;53.514;9.994;2022-10-04T13:16:06;18.00;99.90
981;DHT22;479;53.514;9.994;2022-10-04T13:18:41;18.00;99.90
981;DHT22;479;53.514;9.994;2022-10-04T13:21:17;18.00;99.90
981;DHT22;479;53.514;9.994;2022-10-04T13:23:56;17.90;99.90
981;DHT22;479;53.514;9.994;2022-10-04T13:26:37;17.80;99.90
981;DHT22;479;53.514;9.994;2022-10-04T13:29:15;17.80;99.90
981;DHT22;479;53.514;9.994;2022-10-04T13:31:49;17.80;99.90
981;DHT22;479;53.514;9.994;2022-10-04T13:34:24;17.80;99.90
981;DHT22;479;53.514;9.994;2022-10-04T13:37:17;17.80;99.90
981;DHT22;479;53.514;9.994;2022-10-04T13:40:13;17.90;99.90
981;DHT22;479;53.514;9.994;2022-10-04T13:43:15;18.00;99.90
981;DHT22;479;53.514;9.994;2022-10-04T13:45:59;18.00;99.90
981;DHT22;479;53.514;9.994;2022-10-04T13:48:38;18.00;99.90
981;DHT22;479;53.514;9.994;2022-10-04T13:51:22;17.90;99.90
981;DHT22;479;53.514;9.994;2022-10-04T13:53:57;17.90;99.90
981;DHT22;479;53.514;9.994;2022-10-04T13:56:57;17.90;99.90
981;DHT22;479;53.514;9.994;2022-10-04T13:59:34;17.90;99.90
981;DHT22;479;53.514;9.994;2022-10-04T14:08:27;17.90;99.90
981;DHT22;479;53.514;9.994;2022-10-04T14:20:22;17.80;99.90
981;DHT22;479;53.514;9.994;2022-10-04T14:23:09;17.80;99.90
981;DHT22;479;53.514;9.994;2022-10-04T14:26:12;17.80;99.90
981;DHT22;479;53.514;9.994;2022-10-04T14:32:07;17.80;99.90
981;DHT22;479;53.514;9.994;2022-10-04T14:35:00;17.80;99.90
981;DHT22;479;53.514;9.994;2022-10-04T14:44:07;17.60;99.90
981;DHT22;479;53.514;9.994;2022-10-04T14:46:49;17.70;99.90
981;DHT22;479;53.514;9.994;2022-10-04T14:49:26;17.70;99.90
981;DHT22;479;53.514;9.994;2022-10-04T14:52:11;17.60;99.90
981;DHT22;479;53.514;9.994;2022-10-04T14:54:51;17.70;99.90
981;DHT22;479;53.514;9.994;2022-10-04T14:57:36;17.60;99.90
981;DHT22;479;53.514;9.994;2022-10-04T15:00:16;17.60;99.90
981;DHT22;479;53.514;9.994;2022-10-04T15:02:57;17.60;99.90
981;DHT22;479;53.514;9.994;2022-10-04T15:09:08;17.60;99.90
981;DHT22;479;53.514;9.994;2022-10-04T15:11:45;17.60;99.90
981;DHT22;479;53.514;9.994;2022-10-04T15:14:43;17.50;99.90
981;DHT22;479;53.514;9.994;2022-10-04T15:17:34;17.50;99.90
981;DHT22;479;53.514;9.994;2022-10-04T15:20:14;17.40;99.90
981;DHT22;479;53.514;9.994;2022-10-04T15:22:50;17.40;99.90
981;DHT22;479;53.514;9.994;2022-10-04T15:25:37;17.40;99.90
981;DHT22;479;53.514;9.994;2022-10-04T15:28:24;17.30;99.90
981;DHT22;479;53.514;9.994;2022-10-04T15:30:57;17.30;99.90
981;DHT22;479;53.514;9.994;2022-10-04T15:33:34;17.30;99.90
981;DHT22;479;53.514;9.994;2022-10-04T15:36:37;17.30;99.90
981;DHT22;479;53.514;9.994;2022-10-04T15:39:22;17.30;99.90
981;DHT22;479;53.514;9.994;2022-10-04T15:41:57;17.30;99.90
981;DHT22;479;53.514;9.994;2022-10-04T15:44:47;17.20;99.90
981;DHT22;479;53.514;9.994;2022-10-04T15:47:22;17.20;99.90
981;DHT22;479;53.514;9.994;2022-10-04T15:49:58;17.10;99.90
981;DHT22;479;53.514;9.994;2022-10-04T15:52:49;17.10;99.90
981;DHT22;479;53.514;9.994;2022-10-04T15:55:46;17.10;99.90
981;DHT22;479;53.514;9.994;2022-10-04T15:58:26;17.10;99.90
981;DHT22;479;53.514;9.994;2022-10-04T16:07:49;17.00;99.90
981;DHT22;479;53.514;9.994;2022-10-04T16:10:24;16.90;99.90
981;DHT22;479;53.514;9.994;2022-10-04T16:13:18;16.90;99.90
981;DHT22;479;53.514;9.994;2022-10-04T16:19:00;16.70;99.90
981;DHT22;479;53.514;9.994;2022-10-04T16:21:39;16.70;99.90
981;DHT22;479;53.514;9.994;2022-10-04T16:24:36;16.60;99.90
981;DHT22;479;53.514;9.994;2022-10-04T16:30:13;16.40;99.90
981;DHT22;479;53.514;9.994;2022-10-04T16:32:45;16.30;99.90
981;DHT22;479;53.514;9.994;2022-10-04T16:35:29;16.30;99.90
981;DHT22;479;53.514;9.994;2022-10-04T16:38:03;16.30;99.90
981;DHT22;479;53.514;9.994;2022-10-04T16:40:34;16.20;99.90
981;DHT22;479;53.514;9.994;2022-10-04T16:43:07;16.20;99.90
981;DHT22;479;53.514;9.994;2022-10-04T16:46:05;16.10;99.90
981;DHT22;479;53.514;9.994;2022-10-04T16:48:49;16.10;99.90
981;DHT22;479;53.514;9.994;2022-10-04T16:54:41;16.00;99.90
981;DHT22;479;53.514;9.994;2022-10-04T16:57:18;15.90;99.90
981;DHT22;479;53.514;9.994;2022-10-04T16:59:53;15.90;99.90
981;DHT22;479;53.514;9.994;2022-10-04T17:02:45;15.80;99.90
981;DHT22;479;53.514;9.994;2022-10-04T17:05:31;15.70;99.90
981;DHT22;479;53.514;9.994;2022-10-04T17:08:14;15.70;99.90
981;DHT22;479;53.514;9.994;2022-10-04T17:11:06;15.60;99.90
981;DHT22;479;53.514;9.994;2022-10-04T17:13:48;15.50;99.90
981;DHT22;479;53.514;9.994;2022-10-04T17:16:23;15.40;99.90
981;DHT22;479;53.514;9.994;2022-10-04T17:19:07;15.40;99.90
981;DHT22;479;53.514;9.994;2022-10-04T17:21:43;15.40;99.90
981;DHT22;479;53.514;9.994;2022-10-04T17:24:19;15.30;99.90
981;DHT22;479;53.514;9.994;2022-10-04T17:26:58;15.30;99.90
981;DHT22;479;53.514;9.994;2022-10-04T17:29:35;15.20;99.90
981;DHT22;479;53.514;9.994;2022-10-04T17:32:12;15.20;99.90
981;DHT22;479;53.514;9.994;2022-10-04T17:34:49;15.10;99.90
981;DHT22;479;53.514;9.994;2022-10-04T17:37:23;15.10;99.90
981;DHT22;479;53.514;9.994;2022-10-04T17:40:05;15.00;99.90
981;DHT22;479;53.514;9.994;2022-10-04T17:42:42;14.90;99.90
981;DHT22;479;53.514;9.994;2022-10-04T17:45:34;14.90;99.90
981;DHT22;479;53.514;9.994;2022-10-04T17:48:09;14.80;99.90
981;DHT22;479;53.514;9.994;2022-10-04T17:51:01;14.70;99.90
981;DHT22;479;53.514;9.994;2022-10-04T17:53:50;14.60;99.90
981;DHT22;479;53.514;9.994;2022-10-04T17:56:40;14.60;99.90
981;DHT22;479;53.514;9.994;2022-10-04T17:59:12;14.50;99.90
981;DHT22;479;53.514;9.994;2022-10-04T18:01:44;14.40;99.90
981;DHT22;479;53.514;9.994;2022-10-04T18:04:17;14.30;99.90
981;DHT22;479;53.514;9.994;2022-10-04T18:06:52;14.30;99.90
981;DHT22;479;53.514;9.994;2022-10-04T18:09:26;14.20;99.90
981;DHT22;479;53.514;9.994;2022-10-04T18:11:57;14.20;99.90
981;DHT22;479;53.514;9.994;2022-10-04T18:14:49;14.20;99.90
981;DHT22;479;53.514;9.994;2022-10-04T18:17:26;14.20;99.90
981;DHT22;479;53.514;9.994;2022-10-04T18:20:06;14.10;99.90
981;DHT22;479;53.514;9.994;2022-10-04T18:22:45;14.10;99.90
981;DHT22;479;53.514;9.994;2022-10-04T18:25:14;14.10;99.90
981;DHT22;479;53.514;9.994;2022-10-04T18:27:50;14.00;99.90
981;DHT22;479;53.514;9.994;2022-10-04T18:30:19;14.00;99.90
981;DHT22;479;53.514;9.994;2022-10-04T18:32:49;14.00;99.90
981;DHT22;479;53.514;9.994;2022-10-04T18:35:23;14.00;99.90
981;DHT22;479;53.514;9.994;2022-10-04T18:37:52;13.90;99.90
981;DHT22;479;53.514;9.994;2022-10-04T18:40:20;13.90;99.90
981;DHT22;479;53.514;9.994;2022-10-04T18:42:50;13.90;99.90
981;DHT22;479;53.514;9.994;2022-10-04T18:45:25;13.80;99.90
981;DHT22;479;53.514;9.994;2022-10-04T18:47:54;13.80;99.90
981;DHT22;479;53.514;9.994;2022-10-04T18:50:39;13.80;99.90
981;DHT22;479;53.514;9.994;2022-10-04T18:53:32;13.80;99.90
981;DHT22;479;53.514;9.994;2022-10-04T18:56:02;13.80;99.90
981;DHT22;479;53.514;9.994;2022-10-04T18:58:39;13.70;99.90
981;DHT22;479;53.514;9.994;2022-10-04T19:01:41;13.70;99.90
981;DHT22;479;53.514;9.994;2022-10-04T19:04:36;13.70;99.90
981;DHT22;479;53.514;9.994;2022-10-04T19:07:09;13.70;99.90
981;DHT22;479;53.514;9.994;2022-10-04T19:12:36;13.70;99.90
981;DHT22;479;53.514;9.994;2022-10-04T19:15:17;13.70;99.90
981;DHT22;479;53.514;9.994;2022-10-04T19:17:54;13.60;99.90
981;DHT22;479;53.514;9.994;2022-10-04T19:20:30;13.50;99.90
981;DHT22;479;53.514;9.994;2022-10-04T19:23:10;13.50;99.90
981;DHT22;479;53.514;9.994;2022-10-04T19:25:45;13.50;99.90